Vivian, Louisiana
Current Conditions -  °F | °C
As of 9:53 AM on Thursday 29 Jan 2015 (Local Time) from KDTN Reporting Station
Clear Clear  
Wind Chill: 61°   Ceiling: Unl
Heat Index: 61°   Visibility: 10mi
Dew Point: 53°   Wind: 9mph
Humidity: 75%   Direction: 250°WSW
Pressure: 30.2"   Gusts: NA
Location:  32.87°N, 93.99°W
Report Text: KDTN 291553Z 25008KT 10SM CLR 16/12 A3020 RMK AO2 SLP225 T01610117
Loading
Personal Weather Stations






























Interactive Weather Map New forecast layout! Learn more

10-Day Weather Forecast

Advertisements
Track Severe Weather on mobile